Mazu 2 — CFN4447 — position and weather

sailwx.info

Track history (hours):
 
Tides and Currents Weather Stations Pressure Air Temp Water Temp Dewpoint Dewpoint Depression Visibility Wind Speed Wind Dir Waves Ship Positions

Mazu 2

Last reported at 2017-Oct-01 22:48 UTC. Time now 2017-Dec-12 12:26 UTC.
Position N 32°43' W 117°14'.
Warning: this ship's position is months out of date.

Length 12 m.

Type: Pleasure craft. MMSI: 316008643.

Date/timePositionNaut miles runAvg speedWind from/ knotsBaromVisibWave heightAir tempDewpointWater temp
2017-Oct-01 22:48N 32°43' W 117°14'6 1.5
2017-Oct-01 19:03N 32°41' W 117°21'0 6.3
2017-Oct-01 19:00N 32°42' W 117°21'3 6.0
2017-Oct-01 18:30N 32°43' W 117°24'3 5.9
2017-Oct-01 18:00N 32°45' W 117°27'2 5.0
2017-Oct-01 17:30N 32°47' W 117°29'2 4.1
2017-Oct-01 17:00N 32°47' W 117°31'3 5.2
2017-Oct-01 16:29N 32°49' W 117°34'2 4.4
2017-Oct-01 16:00N 32°50' W 117°36'3 5.0
2017-Oct-01 15:30N 32°51' W 117°39'2 3.9
2017-Oct-01 15:00N 32°52' W 117°41'3 5.4
2017-Oct-01 14:30N 32°53' W 117°44'3 5.2
2017-Oct-01 14:00N 32°53' W 117°47'3 5.0
2017-Oct-01 13:30N 32°54' W 117°50'3 5.1
2017-Oct-01 13:00N 32°56' W 117°52'3 5.2
2017-Oct-01 12:30N 32°57' W 117°55'3 5.5
2017-Oct-01 12:00N 32°59' W 117°57'3 5.6
2017-Oct-01 11:30N 33°00' W 118°00'3 5.6
2017-Oct-01 11:00N 33°02' W 118°03'4 5.7
2017-Oct-01 10:21N 33°03' W 118°07'2 5.7
2017-Oct-01 10:00N 33°04' W 118°10'43 5.9
2017-Oct-01 02:44N 33°18' W 118°58'142 5.8
2017-Sep-30 02:00N 34°09' W 121°37'3 6.6
2017-Sep-30 01:29N 34°10' W 121°41'3 6.3
2017-Sep-30 01:00N 34°12' W 121°44'85 5.5
2017-Sep-29 09:42N 35°18' W 122°49'1 6.1
2017-Sep-29 09:30N 35°19' W 122°48'5 6.7
2017-Sep-29 08:45N 35°24' W 122°46'2 7.2
2017-Sep-29 08:25N 35°26' W 122°44'7 7.4
2017-Sep-29 07:28N 35°33' W 122°41'5 7.5
2017-Sep-29 06:44N 35°38' W 122°40'2 6.6
2017-Sep-29 06:28N 35°40' W 122°39'5 7.0
2017-Sep-29 05:45N 35°45' W 122°38'8 7.6
2017-Sep-29 04:39N 35°53' W 122°36'3 6.2
2017-Sep-29 04:07N 35°56' W 122°35'50 7.0
2017-Sep-28 20:57N 36°46' W 122°28'3 6.5
2017-Sep-28 20:29N 36°49' W 122°28'3 6.3
2017-Sep-28 20:00N 36°52' W 122°28'3 6.6
2017-Sep-28 19:30N 36°55' W 122°27'4 6.9
2017-Sep-28 18:59N 36°59' W 122°26'4 7.4
2017-Sep-28 18:30N 37°02' W 122°25'3 6.2
2017-Sep-28 17:59N 37°05' W 122°24'3 5.7
2017-Sep-28 17:28N 37°08' W 122°25'6 6.8
2017-Sep-28 16:39N 37°13' W 122°27'3 6.6
2017-Sep-28 16:14N 37°16' W 122°28'2 6.7
2017-Sep-28 15:54N 37°18' W 122°28'3 6.6
2017-Sep-28 15:30N 37°21' W 122°29'3 6.4
2017-Sep-28 15:00N 37°24' W 122°29'3 6.6
2017-Sep-28 14:30N 37°27' W 122°29'2 4.8
2017-Sep-28 14:00N 37°30' W 122°29'0 0.1
2017-Sep-28 12:32N 37°30' W 122°29'  
2017-Sep-26 01:36N 37°30' W 122°29'0 0.0
2017-Sep-26 01:30N 37°30' W 122°29'  
2017-Sep-22 02:00N 38°00' W 122°58'0 0.0
2017-Sep-22 01:24N 38°00' W 122°58'0 0.1
2017-Sep-22 01:00N 38°00' W 122°58'0 0.1
2017-Sep-22 00:30N 38°00' W 122°58'0 0.0
2017-Sep-22 00:00N 38°00' W 122°58'0 0.0
2017-Sep-21 23:30N 38°00' W 122°58'0 0.0
2017-Sep-21 23:00N 38°00' W 122°58'  
Track history (hours):
 
Tides and Currents Weather Stations Pressure Air Temp Water Temp Dewpoint Dewpoint Depression Visibility Wind Speed Wind Dir Waves Ship Positions

Mazu 2

Last reported at 2017-Oct-01 22:48 UTC. Time now 2017-Dec-12 12:26 UTC.
Position N 32°43' W 117°14'.
Warning: this ship's position is months out of date.

Length 12 m.

Type: Pleasure craft. MMSI: 316008643.

Date/timePositionNaut miles runAvg speedWind from/ knotsBaromVisibWave heightAir tempDewpointWater temp
2017-Oct-01 22:48N 32°43' W 117°14'6 1.5
2017-Oct-01 19:03N 32°41' W 117°21'0 6.3
2017-Oct-01 19:00N 32°42' W 117°21'3 6.0
2017-Oct-01 18:30N 32°43' W 117°24'3 5.9
2017-Oct-01 18:00N 32°45' W 117°27'2 5.0
2017-Oct-01 17:30N 32°47' W 117°29'2 4.1
2017-Oct-01 17:00N 32°47' W 117°31'3 5.2
2017-Oct-01 16:29N 32°49' W 117°34'2 4.4
2017-Oct-01 16:00N 32°50' W 117°36'3 5.0
2017-Oct-01 15:30N 32°51' W 117°39'2 3.9
2017-Oct-01 15:00N 32°52' W 117°41'3 5.4
2017-Oct-01 14:30N 32°53' W 117°44'3 5.2
2017-Oct-01 14:00N 32°53' W 117°47'3 5.0
2017-Oct-01 13:30N 32°54' W 117°50'3 5.1
2017-Oct-01 13:00N 32°56' W 117°52'3 5.2
2017-Oct-01 12:30N 32°57' W 117°55'3 5.5
2017-Oct-01 12:00N 32°59' W 117°57'3 5.6
2017-Oct-01 11:30N 33°00' W 118°00'3 5.6
2017-Oct-01 11:00N 33°02' W 118°03'4 5.7
2017-Oct-01 10:21N 33°03' W 118°07'2 5.7
2017-Oct-01 10:00N 33°04' W 118°10'43 5.9
2017-Oct-01 02:44N 33°18' W 118°58'142 5.8
2017-Sep-30 02:00N 34°09' W 121°37'3 6.6
2017-Sep-30 01:29N 34°10' W 121°41'3 6.3
2017-Sep-30 01:00N 34°12' W 121°44'85 5.5
2017-Sep-29 09:42N 35°18' W 122°49'1 6.1
2017-Sep-29 09:30N 35°19' W 122°48'5 6.7
2017-Sep-29 08:45N 35°24' W 122°46'2 7.2
2017-Sep-29 08:25N 35°26' W 122°44'7 7.4
2017-Sep-29 07:28N 35°33' W 122°41'5 7.5
2017-Sep-29 06:44N 35°38' W 122°40'2 6.6
2017-Sep-29 06:28N 35°40' W 122°39'5 7.0
2017-Sep-29 05:45N 35°45' W 122°38'8 7.6
2017-Sep-29 04:39N 35°53' W 122°36'3 6.2
2017-Sep-29 04:07N 35°56' W 122°35'50 7.0
2017-Sep-28 20:57N 36°46' W 122°28'3 6.5
2017-Sep-28 20:29N 36°49' W 122°28'3 6.3
2017-Sep-28 20:00N 36°52' W 122°28'3 6.6
2017-Sep-28 19:30N 36°55' W 122°27'4 6.9
2017-Sep-28 18:59N 36°59' W 122°26'4 7.4
2017-Sep-28 18:30N 37°02' W 122°25'3 6.2
2017-Sep-28 17:59N 37°05' W 122°24'3 5.7
2017-Sep-28 17:28N 37°08' W 122°25'6 6.8
2017-Sep-28 16:39N 37°13' W 122°27'3 6.6
2017-Sep-28 16:14N 37°16' W 122°28'2 6.7
2017-Sep-28 15:54N 37°18' W 122°28'3 6.6
2017-Sep-28 15:30N 37°21' W 122°29'3 6.4
2017-Sep-28 15:00N 37°24' W 122°29'3 6.6
2017-Sep-28 14:30N 37°27' W 122°29'2 4.8
2017-Sep-28 14:00N 37°30' W 122°29'0 0.1
2017-Sep-28 12:32N 37°30' W 122°29'  
2017-Sep-26 01:36N 37°30' W 122°29'0 0.0
2017-Sep-26 01:30N 37°30' W 122°29'  
2017-Sep-22 02:00N 38°00' W 122°58'0 0.0
2017-Sep-22 01:24N 38°00' W 122°58'0 0.1
2017-Sep-22 01:00N 38°00' W 122°58'0 0.1
2017-Sep-22 00:30N 38°00' W 122°58'0 0.0
2017-Sep-22 00:00N 38°00' W 122°58'0 0.0
2017-Sep-21 23:30N 38°00' W 122°58'0 0.0
2017-Sep-21 23:00N 38°00' W 122°58'  

Dump ship's entire track history